Time;durP1;ratioP1;P1;durP2;ratioP2;P2;SDS_P1;SDS_P2;PMS_P1;PMS_P2;Temp;Humidity;BMP_temperature;BMP_pressure;BME280_temperature;BME280_humidity;BME280_pressure;Samples;Min_cycle;Max_cycle;Signal;HPM_P1;HPM_P2
2021/11/24 00:01:17;;;;;;;18.38;16.27;;;;;;;;;;4918459;29;20028;-81
2021/11/24 00:03:42;;;;;;;17.58;15.75;;;;;;;;;;4920408;29;20036;-82
2021/11/24 00:06:08;;;;;;;17.63;15.80;;;;;;;;;;4919777;29;20040;-80
2021/11/24 00:08:33;;;;;;;18.20;16.30;;;;;;;;;;4916573;29;20493;-82
2021/11/24 00:11:01;;;;;;;17.73;15.93;;;;;;;;;;4928938;29;20170;-81
2021/11/24 00:13:27;;;;;;;17.58;15.70;;;;;;;;;;4920051;29;20046;-81
2021/11/24 00:15:54;;;;;;;17.92;16.05;;;;;;;;;;4934758;29;20091;-81
2021/11/24 00:18:20;;;;;;;19.05;16.70;;;;;;;;;;4922035;29;20390;-82
2021/11/24 00:20:46;;;;;;;19.60;16.02;;;;;;;;;;4918921;29;20095;-81
2021/11/24 00:23:12;;;;;;;18.50;15.85;;;;;;;;;;4914696;29;20050;-81
2021/11/24 00:25:38;;;;;;;18.10;16.20;;;;;;;;;;4919038;29;20052;-82
2021/11/24 00:28:04;;;;;;;19.17;16.67;;;;;;;;;;4918920;29;20060;-81
2021/11/24 00:30:29;;;;;;;21.70;18.85;;;;;;;;;;4918069;29;20028;-81
2021/11/24 00:32:56;;;;;;;22.35;19.88;;;;;;;;;;4918062;29;20046;-81
2021/11/24 00:35:23;;;;;;;20.77;18.52;;;;;;;;;;4922068;29;20024;-81
2021/11/24 00:37:54;;;;;;;19.98;17.85;;;;;;;;;;4933759;29;20392;-83
2021/11/24 00:40:20;;;;;;;20.67;18.45;;;;;;;;;;4907489;29;20390;-81
2021/11/24 00:42:46;;;;;;;21.77;18.88;;;;;;;;;;4918855;29;20083;-82
2021/11/24 00:45:11;;;;;;;21.23;18.48;;;;;;;;;;4933468;29;20056;-82
2021/11/24 00:47:38;;;;;;;21.02;18.55;;;;;;;;;;4917716;29;20040;-81
2021/11/24 00:50:07;;;;;;;24.25;19.63;;;;;;;;;;4918327;29;20047;-81
2021/11/24 00:52:33;;;;;;;22.80;19.25;;;;;;;;;;4931293;29;20028;-82
2021/11/24 00:55:01;;;;;;;21.23;18.92;;;;;;;;;;4949251;29;20035;-82
2021/11/24 00:57:27;;;;;;;24.08;20.02;;;;;;;;;;4934100;29;20076;-82
2021/11/24 00:59:55;;;;;;;21.92;19.30;;;;;;;;;;4918489;29;20047;-81
2021/11/24 01:02:21;;;;;;;23.42;20.23;;;;;;;;;;4931142;29;20405;-82
2021/11/24 01:04:46;;;;;;;20.98;18.60;;;;;;;;;;4916067;29;20041;-81
2021/11/24 01:07:12;;;;;;;21.90;18.85;;;;;;;;;;4918634;29;20043;-81
2021/11/24 01:09:39;;;;;;;24.65;20.27;;;;;;;;;;4933039;29;20076;-81
2021/11/24 01:12:07;;;;;;;24.58;19.92;;;;;;;;;;4948438;29;20052;-80
2021/11/24 01:14:33;;;;;;;21.20;18.73;;;;;;;;;;4928049;29;20087;-81
2021/11/24 01:17:02;;;;;;;23.40;20.00;;;;;;;;;;4917936;29;20037;-81
2021/11/24 01:19:27;;;;;;;22.45;19.05;;;;;;;;;;4916268;29;20096;-81
2021/11/24 01:21:53;;;;;;;24.25;20.23;;;;;;;;;;4918588;29;20028;-82
2021/11/24 01:24:18;;;;;;;23.13;18.90;;;;;;;;;;4918309;29;20481;-81
2021/11/24 01:26:44;;;;;;;22.35;19.90;;;;;;;;;;4928185;29;20517;-81
2021/11/24 01:29:11;;;;;;;22.50;19.70;;;;;;;;;;4931116;29;20556;-82
2021/11/24 01:31:46;;;;;;;23.33;20.25;;;;;;;;;;4918919;29;20067;-81
2021/11/24 01:34:13;;;;;;;22.67;19.00;;;;;;;;;;4931400;29;20029;-82
2021/11/24 01:36:49;;;;;;;22.17;19.20;;;;;;;;;;4917563;29;20421;-81
2021/11/24 01:39:15;;;;;;;22.75;20.02;;;;;;;;;;4934833;29;20028;-81
2021/11/24 01:41:43;;;;;;;22.98;19.80;;;;;;;;;;4920702;29;20040;-82
2021/11/24 01:44:21;;;;;;;22.67;20.27;;;;;;;;;;4920447;29;20028;-81
2021/11/24 01:47:01;;;;;;;23.17;20.27;;;;;;;;;;4920095;29;20028;-82
2021/11/24 01:49:29;;;;;;;24.27;20.20;;;;;;;;;;4946796;29;20021;-82
2021/11/24 01:51:59;;;;;;;23.63;19.73;;;;;;;;;;4904568;29;20044;-83
2021/11/24 01:54:27;;;;;;;23.77;20.05;;;;;;;;;;4908092;29;20058;-82
2021/11/24 01:56:54;;;;;;;22.40;19.50;;;;;;;;;;4917004;29;20132;-81
2021/11/24 01:59:19;;;;;;;22.88;20.02;;;;;;;;;;4943682;29;20032;-80
2021/11/24 02:01:45;;;;;;;27.23;20.85;;;;;;;;;;4916282;29;20036;-81
2021/11/24 02:04:13;;;;;;;25.40;21.35;;;;;;;;;;4919370;29;20087;-81
2021/11/24 02:06:41;;;;;;;25.42;20.98;;;;;;;;;;4920443;29;20060;-81
2021/11/24 02:09:07;;;;;;;23.20;20.15;;;;;;;;;;4919034;29;20071;-81
2021/11/24 02:11:42;;;;;;;24.45;21.05;;;;;;;;;;4918990;29;20084;-83
2021/11/24 02:14:09;;;;;;;23.58;21.02;;;;;;;;;;4923521;29;20036;-82
2021/11/24 02:16:58;;;;;;;23.05;20.13;;;;;;;;;;4924217;29;20467;-81
2021/11/24 02:19:32;;;;;;;23.27;20.33;;;;;;;;;;4924048;29;20040;-81
2021/11/24 02:22:03;;;;;;;24.33;20.15;;;;;;;;;;4906606;29;20041;-82
2021/11/24 02:24:33;;;;;;;22.98;20.23;;;;;;;;;;4938025;29;20058;-82
2021/11/24 02:27:06;;;;;;;23.45;20.80;;;;;;;;;;4906161;29;20397;-82
2021/11/24 02:29:35;;;;;;;23.25;20.52;;;;;;;;;;4923584;29;20036;-82
2021/11/24 02:32:02;;;;;;;24.58;20.52;;;;;;;;;;4918849;29;20514;-81
2021/11/24 02:34:29;;;;;;;25.35;20.85;;;;;;;;;;4914176;29;20024;-81
2021/11/24 02:36:55;;;;;;;24.20;20.50;;;;;;;;;;4919541;29;20165;-81
2021/11/24 02:39:21;;;;;;;25.70;21.33;;;;;;;;;;4934961;29;20044;-80
2021/11/24 02:41:47;;;;;;;24.88;21.67;;;;;;;;;;4919530;29;20047;-81
2021/11/24 02:44:20;;;;;;;23.90;20.70;;;;;;;;;;4919581;29;20058;-81
2021/11/24 02:46:46;;;;;;;24.25;21.65;;;;;;;;;;4933209;29;20047;-81
2021/11/24 02:49:16;;;;;;;24.00;21.38;;;;;;;;;;4921516;29;20036;-82
2021/11/24 02:51:42;;;;;;;25.52;22.27;;;;;;;;;;4921565;29;20564;-82
2021/11/24 02:54:10;;;;;;;24.92;21.45;;;;;;;;;;4922510;29;20028;-82
2021/11/24 02:56:37;;;;;;;25.15;22.45;;;;;;;;;;4947438;29;20091;-81
2021/11/24 02:59:05;;;;;;;26.10;22.02;;;;;;;;;;4930465;29;20044;-81
2021/11/24 03:01:31;;;;;;;26.50;22.27;;;;;;;;;;4929880;29;20028;-81
2021/11/24 03:03:57;;;;;;;25.45;22.23;;;;;;;;;;4932560;29;20092;-81
2021/11/24 03:06:22;;;;;;;25.25;21.88;;;;;;;;;;4919056;29;20421;-81
2021/11/24 03:08:48;;;;;;;28.23;22.33;;;;;;;;;;4919455;29;20024;-81
2021/11/24 03:11:13;;;;;;;24.88;22.20;;;;;;;;;;4932242;29;20104;-81
2021/11/24 03:13:40;;;;;;;26.20;22.63;;;;;;;;;;4929233;29;20047;-81
2021/11/24 03:16:06;;;;;;;26.10;21.42;;;;;;;;;;4920623;29;20028;-81
2021/11/24 03:18:39;;;;;;;25.23;21.93;;;;;;;;;;4921267;29;20032;-82
2021/11/24 03:22:10;;;;;;;25.75;22.23;;;;;;;;;;4921190;29;20422;-81
2021/11/24 03:25:02;;;;;;;24.92;21.55;;;;;;;;;;4923510;29;20146;-82
2021/11/24 03:27:35;;;;;;;25.75;20.75;;;;;;;;;;4918700;29;20473;-79
2021/11/24 03:30:05;;;;;;;22.25;19.35;;;;;;;;;;4919955;29;20095;-81
2021/11/24 03:32:31;;;;;;;23.33;19.80;;;;;;;;;;4918685;29;20087;-80
2021/11/24 03:34:56;;;;;;;23.52;19.13;;;;;;;;;;4916850;29;20032;-80
2021/11/24 03:37:22;;;;;;;21.85;18.83;;;;;;;;;;4931383;29;20039;-81
2021/11/24 03:39:49;;;;;;;22.25;19.10;;;;;;;;;;4918384;29;20086;-80
2021/11/24 03:42:21;;;;;;;21.05;18.13;;;;;;;;;;4920656;29;20036;-81
2021/11/24 03:44:50;;;;;;;21.48;18.92;;;;;;;;;;4929315;29;20028;-82
2021/11/24 03:47:16;;;;;;;23.17;19.17;;;;;;;;;;4916309;29;20417;-80
2021/11/24 03:49:42;;;;;;;21.55;18.60;;;;;;;;;;4918836;29;20417;-81
2021/11/24 03:52:07;;;;;;;20.98;18.73;;;;;;;;;;4930544;29;20029;-79
2021/11/24 03:54:33;;;;;;;19.52;17.42;;;;;;;;;;4919792;29;20088;-80
2021/11/24 03:56:59;;;;;;;23.42;19.02;;;;;;;;;;4921059;29;20028;-81
2021/11/24 03:59:27;;;;;;;20.25;18.05;;;;;;;;;;4920118;29;20076;-80
2021/11/24 04:01:53;;;;;;;21.15;18.95;;;;;;;;;;4933665;29;20044;-81
2021/11/24 04:04:18;;;;;;;20.13;18.02;;;;;;;;;;4918045;29;20494;-81
2021/11/24 04:06:43;;;;;;;21.67;19.38;;;;;;;;;;4949706;29;20059;-81
2021/11/24 04:09:13;;;;;;;22.27;19.23;;;;;;;;;;4934105;29;20099;-80
2021/11/24 04:11:38;;;;;;;22.98;20.02;;;;;;;;;;4948802;28;20134;-82
2021/11/24 04:14:04;;;;;;;23.58;20.75;;;;;;;;;;4919501;29;20464;-81
2021/11/24 04:16:31;;;;;;;23.67;19.80;;;;;;;;;;4933839;29;20375;-81
2021/11/24 04:18:59;;;;;;;21.65;19.30;;;;;;;;;;4918988;29;20040;-80
2021/11/24 04:21:25;;;;;;;20.85;18.52;;;;;;;;;;4919701;29;20509;-80
2021/11/24 04:23:50;;;;;;;24.05;19.83;;;;;;;;;;4918841;29;20036;-81
2021/11/24 04:26:18;;;;;;;22.08;19.45;;;;;;;;;;4918378;29;20040;-81
2021/11/24 04:28:46;;;;;;;23.92;20.02;;;;;;;;;;4949214;29;20527;-81
2021/11/24 04:31:11;;;;;;;21.40;18.88;;;;;;;;;;4918985;29;20042;-81
2021/11/24 04:33:38;;;;;;;23.70;20.50;;;;;;;;;;4933233;29;20122;-80
2021/11/24 04:36:04;;;;;;;21.55;19.23;;;;;;;;;;4920315;29;20050;-82
2021/11/24 04:38:30;;;;;;;24.35;20.42;;;;;;;;;;4917955;29;20051;-80
2021/11/24 04:40:57;;;;;;;22.88;19.55;;;;;;;;;;4931289;29;20055;-81
2021/11/24 04:43:27;;;;;;;23.88;20.60;;;;;;;;;;4918247;29;20028;-81
2021/11/24 04:45:53;;;;;;;22.67;20.17;;;;;;;;;;4917547;29;20044;-80
2021/11/24 04:48:18;;;;;;;22.38;19.15;;;;;;;;;;4918066;29;20480;-80
2021/11/24 04:50:43;;;;;;;24.17;20.15;;;;;;;;;;4917141;29;20068;-80
2021/11/24 04:53:09;;;;;;;23.55;20.95;;;;;;;;;;4917322;29;20496;-81
2021/11/24 04:55:34;;;;;;;21.77;19.27;;;;;;;;;;4931545;29;20657;-79
2021/11/24 04:58:00;;;;;;;24.20;19.95;;;;;;;;;;4915167;29;20521;-79
2021/11/24 05:00:27;;;;;;;24.95;21.67;;;;;;;;;;4912774;29;20031;-80
2021/11/24 05:02:53;;;;;;;25.80;21.35;;;;;;;;;;4916716;29;20036;-80
2021/11/24 05:05:24;;;;;;;23.38;19.80;;;;;;;;;;4930923;29;20039;-81
2021/11/24 05:07:51;;;;;;;24.92;20.88;;;;;;;;;;4916923;29;20064;-80
2021/11/24 05:10:16;;;;;;;24.13;20.67;;;;;;;;;;4910892;28;20037;-79
2021/11/24 05:12:42;;;;;;;22.98;20.13;;;;;;;;;;4883530;29;20036;-79
2021/11/24 05:15:16;;;;;;;23.58;20.40;;;;;;;;;;4893219;29;20028;-80
2021/11/24 05:17:44;;;;;;;23.02;19.48;;;;;;;;;;4885722;29;20093;-80
2021/11/24 05:20:10;;;;;;;24.95;21.63;;;;;;;;;;4890533;29;20052;-80
2021/11/24 05:22:36;;;;;;;23.10;20.60;;;;;;;;;;4898395;29;20061;-80
2021/11/24 05:25:04;;;;;;;27.35;22.02;;;;;;;;;;4898311;29;20032;-80
2021/11/24 05:27:30;;;;;;;25.60;21.85;;;;;;;;;;4882261;29;20029;-81
2021/11/24 05:29:55;;;;;;;26.50;22.23;;;;;;;;;;4897580;29;20048;-82
2021/11/24 05:32:21;;;;;;;28.73;21.80;;;;;;;;;;4886830;29;20037;-81
2021/11/24 05:34:47;;;;;;;27.88;21.92;;;;;;;;;;4884006;29;20044;-80
2021/11/24 05:37:12;;;;;;;24.45;21.75;;;;;;;;;;4880503;29;20478;-80
2021/11/24 05:39:38;;;;;;;24.95;22.05;;;;;;;;;;4880418;29;20111;-80
2021/11/24 05:42:04;;;;;;;24.08;21.50;;;;;;;;;;4899509;29;20025;-81
2021/11/24 05:44:34;;;;;;;24.63;20.67;;;;;;;;;;4897889;29;20063;-81
2021/11/24 05:47:06;;;;;;;24.42;21.40;;;;;;;;;;4892608;29;20064;-81
2021/11/24 05:49:34;;;;;;;24.42;21.38;;;;;;;;;;4897994;29;20060;-81
2021/11/24 05:52:00;;;;;;;25.80;21.35;;;;;;;;;;4899342;29;20509;-80
2021/11/24 05:54:26;;;;;;;23.90;20.33;;;;;;;;;;4881643;29;20025;-80
2021/11/24 05:56:51;;;;;;;25.85;22.17;;;;;;;;;;4880853;29;20039;-80
2021/11/24 05:59:18;;;;;;;25.35;22.42;;;;;;;;;;4894564;29;20036;-81
2021/11/24 06:01:45;;;;;;;23.77;20.42;;;;;;;;;;4889103;29;20510;-80
2021/11/24 06:04:10;;;;;;;26.75;21.67;;;;;;;;;;4880241;29;20029;-80
2021/11/24 06:06:37;;;;;;;25.85;20.98;;;;;;;;;;4894946;29;20032;-81
2021/11/24 06:09:06;;;;;;;25.20;21.48;;;;;;;;;;4893484;29;20104;-79
2021/11/24 06:11:32;;;;;;;26.75;21.38;;;;;;;;;;4904329;29;20047;-79
2021/11/24 06:13:58;;;;;;;26.67;21.98;;;;;;;;;;4928808;29;20490;-80
2021/11/24 06:16:29;;;;;;;26.13;22.05;;;;;;;;;;4930994;29;20032;-80
2021/11/24 06:18:54;;;;;;;;;;;;;;;;;;4917031;29;20025;-80
2021/11/24 06:21:22;;;;;;;24.98;21.60;;;;;;;;;;4915593;29;19915;-80
2021/11/24 06:23:51;;;;;;;25.85;21.83;;;;;;;;;;4943535;28;20495;-82
2021/11/24 06:26:20;;;;;;;24.85;21.65;;;;;;;;;;4914602;29;20036;-81
2021/11/24 06:28:46;;;;;;;23.88;20.30;;;;;;;;;;4916223;29;20052;-81
2021/11/24 06:31:11;;;;;;;23.83;21.13;;;;;;;;;;4933637;29;20029;-80
2021/11/24 06:33:38;;;;;;;24.48;21.58;;;;;;;;;;4922828;29;20024;-81
2021/11/24 06:36:16;;;;;;;27.63;22.70;;;;;;;;;;4937211;29;20024;-82
2021/11/24 06:38:43;;;;;;;27.30;22.92;;;;;;;;;;4920725;29;20044;-81
2021/11/24 06:41:09;;;;;;;30.85;22.38;;;;;;;;;;4934446;29;20032;-80
2021/11/24 06:43:37;;;;;;;24.98;22.25;;;;;;;;;;4930606;29;20176;-80
2021/11/24 06:46:02;;;;;;;25.75;22.70;;;;;;;;;;4917725;29;20204;-80
2021/11/24 06:48:29;;;;;;;26.15;22.70;;;;;;;;;;4949193;29;20556;-82
2021/11/24 06:50:55;;;;;;;26.92;22.20;;;;;;;;;;4922756;29;20047;-81
2021/11/24 06:53:21;;;;;;;28.95;23.45;;;;;;;;;;4923793;29;20036;-83
2021/11/24 06:56:02;;;;;;;29.15;23.70;;;;;;;;;;4922564;29;20040;-81
2021/11/24 06:58:28;;;;;;;30.98;24.02;;;;;;;;;;4936011;29;20040;-82
2021/11/24 07:00:53;;;;;;;33.75;24.75;;;;;;;;;;4921917;29;20083;-81
2021/11/24 07:03:20;;;;;;;28.02;24.17;;;;;;;;;;4921636;29;20032;-81
2021/11/24 07:05:50;;;;;;;28.92;24.08;;;;;;;;;;4922413;29;20036;-81
2021/11/24 07:08:15;;;;;;;28.65;23.95;;;;;;;;;;4921011;29;20044;-81
2021/11/24 07:10:41;;;;;;;30.85;25.17;;;;;;;;;;4921578;29;20040;-82
2021/11/24 07:13:07;;;;;;;32.45;26.45;;;;;;;;;;4932380;29;20060;-80
2021/11/24 07:15:33;;;;;;;28.38;23.98;;;;;;;;;;4922148;29;20123;-82
2021/11/24 07:18:00;;;;;;;27.25;23.83;;;;;;;;;;4919213;29;20087;-80
2021/11/24 07:20:29;;;;;;;28.30;24.15;;;;;;;;;;4921448;29;20050;-81
2021/11/24 07:22:58;;;;;;;32.63;25.98;;;;;;;;;;4921522;29;20048;-83
2021/11/24 07:25:24;;;;;;;32.38;24.50;;;;;;;;;;4922280;29;20035;-82
2021/11/24 07:27:51;;;;;;;31.13;24.95;;;;;;;;;;4936211;29;20397;-82
2021/11/24 07:30:19;;;;;;;30.60;24.80;;;;;;;;;;4951068;29;20040;-81
2021/11/24 07:32:48;;;;;;;32.40;25.10;;;;;;;;;;4951741;29;20043;-82
2021/11/24 07:35:17;;;;;;;36.05;26.60;;;;;;;;;;4930278;29;20028;-79
2021/11/24 07:37:42;;;;;;;37.45;27.42;;;;;;;;;;4916402;29;20410;-80
2021/11/24 07:40:10;;;;;;;40.60;28.98;;;;;;;;;;4944831;28;20024;-81
2021/11/24 07:42:35;;;;;;;41.92;29.95;;;;;;;;;;4934043;29;20432;-81
2021/11/24 07:45:01;;;;;;;40.30;28.60;;;;;;;;;;4918060;29;20046;-80
2021/11/24 07:47:26;;;;;;;42.25;30.65;;;;;;;;;;4919526;29;20114;-80
2021/11/24 07:49:53;;;;;;;47.22;31.38;;;;;;;;;;4918878;29;20032;-81
2021/11/24 07:52:19;;;;;;;34.60;28.75;;;;;;;;;;4919007;29;20461;-80
2021/11/24 07:54:46;;;;;;;37.58;28.33;;;;;;;;;;4919740;29;20043;-80
2021/11/24 07:57:12;;;;;;;37.13;30.13;;;;;;;;;;4916779;29;20047;-79
2021/11/24 07:59:37;;;;;;;37.35;30.70;;;;;;;;;;4918264;29;20524;-79
2021/11/24 08:02:04;;;;;;;41.28;30.92;;;;;;;;;;4916800;29;20032;-79
2021/11/24 08:04:29;;;;;;;41.28;31.05;;;;;;;;;;4917816;29;20099;-79
2021/11/24 08:06:59;;;;;;;37.20;30.15;;;;;;;;;;4932522;29;20069;-80
2021/11/24 08:09:28;;;;;;;38.03;28.23;;;;;;;;;;4918034;29;20110;-80
2021/11/24 08:11:54;;;;;;;35.05;28.60;;;;;;;;;;4917965;29;20036;-80
2021/11/24 08:14:19;;;;;;;36.28;28.90;;;;;;;;;;4918022;29;20031;-81
2021/11/24 08:16:45;;;;;;;36.40;28.77;;;;;;;;;;4931883;29;20040;-80
2021/11/24 08:19:13;;;;;;;38.78;29.00;;;;;;;;;;4918167;29;20486;-81
2021/11/24 08:21:39;;;;;;;35.00;28.58;;;;;;;;;;4918022;29;20454;-80
2021/11/24 08:24:05;;;;;;;32.95;27.48;;;;;;;;;;4918819;29;20060;-79
2021/11/24 08:26:31;;;;;;;33.08;27.58;;;;;;;;;;4917700;29;20088;-81
2021/11/24 08:28:56;;;;;;;37.25;28.05;;;;;;;;;;4948056;28;20032;-79
2021/11/24 08:31:23;;;;;;;33.72;27.15;;;;;;;;;;4928979;29;20573;-80
2021/11/24 08:33:48;;;;;;;35.75;28.73;;;;;;;;;;4930542;29;20115;-79
2021/11/24 08:36:15;;;;;;;35.53;27.13;;;;;;;;;;4917627;29;20111;-80
2021/11/24 08:38:41;;;;;;;34.30;26.35;;;;;;;;;;4916003;29;20030;-79
2021/11/24 08:41:09;;;;;;;35.60;27.77;;;;;;;;;;4917520;29;20028;-79
2021/11/24 08:43:34;;;;;;;35.53;27.95;;;;;;;;;;4948116;28;20084;-80
2021/11/24 08:46:00;;;;;;;31.95;26.67;;;;;;;;;;4917739;29;20024;-80
2021/11/24 08:48:25;;;;;;;39.42;29.70;;;;;;;;;;4917419;29;20028;-80
2021/11/24 08:50:52;;;;;;;35.72;28.02;;;;;;;;;;4917619;29;20092;-79
2021/11/24 08:53:19;;;;;;;35.85;28.40;;;;;;;;;;4917237;29;20111;-80
2021/11/24 08:55:44;;;;;;;38.72;29.55;;;;;;;;;;4917433;29;20028;-79
2021/11/24 08:58:10;;;;;;;34.10;28.80;;;;;;;;;;4916971;29;20031;-79
2021/11/24 09:00:35;;;;;;;34.70;28.02;;;;;;;;;;4917434;29;20473;-80
2021/11/24 09:03:01;;;;;;;34.90;29.15;;;;;;;;;;4916049;29;20028;-79
2021/11/24 09:05:26;;;;;;;33.83;28.35;;;;;;;;;;4931716;29;20032;-79
2021/11/24 09:07:52;;;;;;;34.92;29.65;;;;;;;;;;4917410;29;20032;-79
2021/11/24 09:10:19;;;;;;;38.28;31.30;;;;;;;;;;4914596;29;20136;-80
2021/11/24 09:12:45;;;;;;;35.63;29.85;;;;;;;;;;4916936;29;20043;-80
2021/11/24 09:15:11;;;;;;;36.15;30.55;;;;;;;;;;4914358;29;20028;-79
2021/11/24 09:17:36;;;;;;;34.40;29.23;;;;;;;;;;4916655;29;20027;-79
2021/11/24 09:20:04;;;;;;;37.88;30.25;;;;;;;;;;4915523;29;20066;-79
2021/11/24 09:22:29;;;;;;;32.47;28.13;;;;;;;;;;4931837;29;20038;-81
2021/11/24 09:24:59;;;;;;;33.38;28.65;;;;;;;;;;4916639;29;20024;-79
2021/11/24 09:27:44;;;;;;;33.10;28.30;;;;;;;;;;4917269;29;20055;-79
2021/11/24 09:30:10;;;;;;;35.53;28.45;;;;;;;;;;4917211;29;20067;-79
2021/11/24 09:32:35;;;;;;;33.00;28.58;;;;;;;;;;4915410;29;20511;-81
2021/11/24 09:35:03;;;;;;;35.78;29.27;;;;;;;;;;4916403;29;20024;-79
2021/11/24 09:37:28;;;;;;;34.70;28.90;;;;;;;;;;4916701;29;20375;-80
2021/11/24 09:39:54;;;;;;;34.58;29.70;;;;;;;;;;4916432;29;20040;-80
2021/11/24 09:42:23;;;;;;;45.97;40.35;;;;;;;;;;4931740;29;20466;-79
2021/11/24 09:44:49;;;;;;;32.90;29.27;;;;;;;;;;4916129;29;20183;-80
2021/11/24 09:47:15;;;;;;;33.30;28.67;;;;;;;;;;4929659;29;20043;-80
2021/11/24 09:49:45;;;;;;;34.05;28.70;;;;;;;;;;4916514;29;20039;-80
2021/11/24 09:52:11;;;;;;;38.03;30.35;;;;;;;;;;4931536;29;20036;-80
2021/11/24 09:54:37;;;;;;;37.88;31.13;;;;;;;;;;4916520;29;20478;-81
2021/11/24 09:57:03;;;;;;;37.15;30.23;;;;;;;;;;4916841;29;20426;-80
2021/11/24 09:59:29;;;;;;;37.67;30.33;;;;;;;;;;4916933;29;20481;-81
2021/11/24 10:01:58;;;;;;;38.78;30.88;;;;;;;;;;4916660;28;20035;-81
2021/11/24 10:04:24;;;;;;;34.85;29.13;;;;;;;;;;4931016;29;20540;-81
2021/11/24 10:06:50;;;;;;;33.40;29.45;;;;;;;;;;4917079;29;20115;-80
2021/11/24 10:09:16;;;;;;;38.00;29.67;;;;;;;;;;4917455;29;20485;-79
2021/11/24 10:11:41;;;;;;;37.88;30.63;;;;;;;;;;4930860;29;20072;-81
2021/11/24 10:14:07;;;;;;;37.28;30.42;;;;;;;;;;4916200;29;20089;-79
2021/11/24 10:16:34;;;;;;;36.15;29.60;;;;;;;;;;4928243;29;20036;-82
2021/11/24 10:19:11;;;;;;;37.80;31.67;;;;;;;;;;4916803;29;20028;-81
2021/11/24 10:21:54;;;;;;;35.92;28.85;;;;;;;;;;4898789;29;20029;-80
2021/11/24 10:24:29;;;;;;;35.60;29.23;;;;;;;;;;4917294;29;20461;-79
2021/11/24 10:26:54;;;;;;;35.90;28.88;;;;;;;;;;4919935;29;20079;-79
2021/11/24 10:29:21;;;;;;;37.38;29.42;;;;;;;;;;4919798;29;20521;-80
2021/11/24 10:31:52;;;;;;;38.72;30.13;;;;;;;;;;4931474;29;20036;-80
2021/11/24 10:34:21;;;;;;;37.38;30.55;;;;;;;;;;4904148;29;20032;-80
2021/11/24 10:37:22;;;;;;;35.88;29.55;;;;;;;;;;4918578;29;20119;-80
2021/11/24 10:39:56;;;;;;;37.13;28.85;;;;;;;;;;4917882;29;20053;-80
2021/11/24 10:42:25;;;;;;;37.38;29.45;;;;;;;;;;4918063;29;20036;-81
2021/11/24 10:45:11;;;;;;;34.03;29.23;;;;;;;;;;4918089;29;20043;-81
2021/11/24 10:47:49;;;;;;;37.50;30.40;;;;;;;;;;4918014;29;20047;-80
2021/11/24 10:50:23;;;;;;;34.70;29.85;;;;;;;;;;4918032;29;20044;-80
2021/11/24 10:52:49;;;;;;;33.67;28.45;;;;;;;;;;4914420;29;20036;-79
2021/11/24 10:55:23;;;;;;;33.83;29.05;;;;;;;;;;4902568;29;20042;-82
2021/11/24 10:58:00;;;;;;;34.80;29.17;;;;;;;;;;4917798;29;20122;-79
2021/11/24 11:00:43;;;;;;;34.95;28.85;;;;;;;;;;4917965;29;20070;-80
2021/11/24 11:03:10;;;;;;;37.28;29.55;;;;;;;;;;4917512;29;20094;-80
2021/11/24 11:05:40;;;;;;;37.97;29.83;;;;;;;;;;4914206;29;20469;-80
2021/11/24 11:08:09;;;;;;;34.50;28.85;;;;;;;;;;4910877;29;20464;-80
2021/11/24 11:10:38;;;;;;;42.53;33.53;;;;;;;;;;4902552;29;20079;-80
2021/11/24 11:13:04;;;;;;;38.30;31.13;;;;;;;;;;4918537;29;20080;-82
2021/11/24 11:15:34;;;;;;;36.08;30.58;;;;;;;;;;4910650;29;20032;-80
2021/11/24 11:18:08;;;;;;;35.70;29.52;;;;;;;;;;4930173;29;20035;-81
2021/11/24 11:20:39;;;;;;;36.50;31.23;;;;;;;;;;4919702;29;20043;-79
2021/11/24 11:23:14;;;;;;;34.20;29.70;;;;;;;;;;4919717;29;20407;-80
2021/11/24 11:25:49;;;;;;;36.38;29.45;;;;;;;;;;4917620;29;20048;-81
2021/11/24 11:28:15;;;;;;;35.00;28.92;;;;;;;;;;4918788;29;20024;-81
2021/11/24 11:30:43;;;;;;;32.00;28.33;;;;;;;;;;4919598;29;20508;-80
2021/11/24 11:33:12;;;;;;;34.45;29.27;;;;;;;;;;4919066;29;20032;-80
2021/11/24 11:35:38;;;;;;;36.40;28.88;;;;;;;;;;4919501;28;20028;-80
2021/11/24 11:38:04;;;;;;;36.75;30.40;;;;;;;;;;4918940;29;20028;-80
2021/11/24 11:40:33;;;;;;;35.10;30.13;;;;;;;;;;4933302;29;20020;-80
2021/11/24 11:43:01;;;;;;;35.83;30.40;;;;;;;;;;4919423;29;20052;-80
2021/11/24 11:45:29;;;;;;;35.63;30.00;;;;;;;;;;4919673;29;20026;-80
2021/11/24 11:47:57;;;;;;;35.25;31.27;;;;;;;;;;4931742;29;20043;-80
2021/11/24 11:50:37;;;;;;;36.65;31.52;;;;;;;;;;4918679;29;20056;-80
2021/11/24 11:53:19;;;;;;;35.13;30.23;;;;;;;;;;4918907;29;20039;-80
2021/11/24 11:55:47;;;;;;;37.20;32.05;;;;;;;;;;4914684;29;20409;-80
2021/11/24 11:58:27;;;;;;;35.25;29.33;;;;;;;;;;4918792;29;20031;-81
2021/11/24 12:01:10;;;;;;;36.78;29.98;;;;;;;;;;4919133;29;20032;-80
2021/11/24 12:03:56;;;;;;;35.28;28.75;;;;;;;;;;4930319;29;20039;-81
2021/11/24 12:06:26;;;;;;;31.58;26.58;;;;;;;;;;4916948;29;20024;-81
2021/11/24 12:09:06;;;;;;;29.58;26.35;;;;;;;;;;4918497;29;20059;-81
2021/11/24 12:12:07;;;;;;;32.45;26.55;;;;;;;;;;4946074;28;20055;-81
2021/11/24 12:14:53;;;;;;;31.63;27.48;;;;;;;;;;4918506;29;20478;-81
2021/11/24 12:20:16;;;;;;;28.45;25.35;;;;;;;;;;4920569;29;20028;-81
2021/11/24 12:25:25;;;;;;;27.52;24.58;;;;;;;;;;4920826;29;20405;-81
2021/11/24 12:27:50;;;;;;;30.42;27.08;;;;;;;;;;4935452;29;20028;-82
2021/11/24 12:30:52;;;;;;;29.45;24.83;;;;;;;;;;4920342;29;20568;-81
2021/11/24 12:33:21;;;;;;;27.48;24.50;;;;;;;;;;4951201;29;20040;-81
2021/11/24 12:35:55;;;;;;;27.77;24.42;;;;;;;;;;4937608;28;20104;-82
2021/11/24 12:38:23;;;;;;;31.05;25.60;;;;;;;;;;4929418;29;20501;-82
2021/11/24 12:41:03;;;;;;;28.38;25.05;;;;;;;;;;4950931;28;20489;-82
2021/11/24 12:43:34;;;;;;;29.70;25.38;;;;;;;;;;4946747;28;20131;-82
2021/11/24 12:46:11;;;;;;;26.27;23.07;;;;;;;;;;4904329;29;20486;-82
2021/11/24 12:48:53;;;;;;;24.98;22.27;;;;;;;;;;4905477;29;20041;-83
2021/11/24 12:51:48;;;;;;;25.25;21.50;;;;;;;;;;4907733;29;20036;-81
2021/11/24 12:54:30;;;;;;;23.50;20.73;;;;;;;;;;4945677;29;20024;-82
2021/11/24 12:57:30;;;;;;;24.75;21.23;;;;;;;;;;4928372;29;20076;-81
2021/11/24 12:59:58;;;;;;;25.23;20.90;;;;;;;;;;4929671;29;20051;-81
2021/11/24 13:02:25;;;;;;;24.75;20.52;;;;;;;;;;4916280;29;20032;-82
2021/11/24 13:04:51;;;;;;;23.65;19.70;;;;;;;;;;4926580;29;20052;-83
2021/11/24 13:07:19;;;;;;;22.88;18.92;;;;;;;;;;4930915;29;20485;-82
2021/11/24 13:09:46;;;;;;;29.88;20.13;;;;;;;;;;4915849;29;20083;-83
2021/11/24 13:12:17;;;;;;;23.75;19.00;;;;;;;;;;4916392;29;20138;-82
2021/11/24 13:14:46;;;;;;;25.42;19.45;;;;;;;;;;4916082;29;20043;-82
2021/11/24 13:17:19;;;;;;;23.77;18.52;;;;;;;;;;4916010;29;20036;-82
2021/11/24 13:19:47;;;;;;;22.33;18.63;;;;;;;;;;4916007;29;20039;-83
2021/11/24 13:22:27;;;;;;;23.92;18.65;;;;;;;;;;4916047;29;20028;-81
2021/11/24 13:25:28;;;;;;;22.73;18.38;;;;;;;;;;4929521;29;20043;-81
2021/11/24 13:28:53;;;;;;;20.48;18.00;;;;;;;;;;4933587;29;20047;-81
2021/11/24 13:32:04;;;;;;;24.80;19.02;;;;;;;;;;4934031;29;20064;-81
2021/11/24 13:35:04;;;;;;;24.60;19.52;;;;;;;;;;4927656;29;20076;-82
2021/11/24 13:37:31;;;;;;;29.35;23.88;;;;;;;;;;4923392;29;20044;-82
2021/11/24 13:40:04;;;;;;;23.80;19.67;;;;;;;;;;4938921;29;20075;-83
2021/11/24 13:42:34;;;;;;;27.02;19.58;;;;;;;;;;4901822;29;20059;-82
2021/11/24 13:45:01;;;;;;;24.88;19.90;;;;;;;;;;4918981;29;20063;-83
2021/11/24 13:47:30;;;;;;;26.00;20.95;;;;;;;;;;4921870;29;20036;-82
2021/11/24 13:49:59;;;;;;;27.88;20.38;;;;;;;;;;4921156;29;20052;-82
2021/11/24 13:52:33;;;;;;;25.52;20.42;;;;;;;;;;4920221;29;20099;-82
2021/11/24 13:54:59;;;;;;;27.17;23.52;;;;;;;;;;4920928;29;20040;-82
2021/11/24 13:57:30;;;;;;;25.33;20.65;;;;;;;;;;4908842;29;20501;-82
2021/11/24 14:00:06;;;;;;;23.17;19.88;;;;;;;;;;4920640;29;20091;-82
2021/11/24 14:02:33;;;;;;;23.65;19.33;;;;;;;;;;4922841;29;20120;-82
2021/11/24 14:05:08;;;;;;;22.15;19.27;;;;;;;;;;4923470;29;20035;-82
2021/11/24 14:07:37;;;;;;;22.40;18.40;;;;;;;;;;4923348;29;20040;-82
2021/11/24 14:10:14;;;;;;;24.02;19.48;;;;;;;;;;4925358;29;20082;-82
2021/11/24 14:12:48;;;;;;;21.42;18.42;;;;;;;;;;4928050;29;20075;-81
2021/11/24 14:15:25;;;;;;;24.10;19.73;;;;;;;;;;4927771;29;20104;-82
2021/11/24 14:18:00;;;;;;;27.48;20.83;;;;;;;;;;4925232;29;20040;-81
2021/11/24 14:20:28;;;;;;;29.98;22.90;;;;;;;;;;4925850;29;20048;-82
2021/11/24 14:22:57;;;;;;;26.00;20.05;;;;;;;;;;4926457;29;20044;-82
2021/11/24 14:25:52;;;;;;;27.08;20.45;;;;;;;;;;4924374;29;20028;-82
2021/11/24 14:28:24;;;;;;;33.50;25.98;;;;;;;;;;4921800;29;20103;-82
2021/11/24 14:30:51;;;;;;;42.92;30.08;;;;;;;;;;4922925;29;20426;-81
2021/11/24 14:33:21;;;;;;;25.00;22.02;;;;;;;;;;4941501;29;20036;-82
2021/11/24 14:35:47;;;;;;;24.95;21.85;;;;;;;;;;4921670;29;20033;-82
2021/11/24 14:38:13;;;;;;;25.73;22.75;;;;;;;;;;4924230;29;20039;-81